sensor_id;sensor_type;location;lat;lon;timestamp;P1;durP1;ratioP1;P2;durP2;ratioP2
73337;SDS011;61575;49.908;35.556;2024-02-15T00:02:40;22.90;;;9.27;;
73337;SDS011;61575;49.908;35.556;2024-02-15T00:05:43;24.65;;;11.10;;
73337;SDS011;61575;49.908;35.556;2024-02-15T00:08:45;23.85;;;9.57;;
73337;SDS011;61575;49.908;35.556;2024-02-15T00:11:47;23.27;;;9.30;;
73337;SDS011;61575;49.908;35.556;2024-02-15T00:14:49;20.03;;;8.43;;
73337;SDS011;61575;49.908;35.556;2024-02-15T00:17:52;21.73;;;9.23;;
73337;SDS011;61575;49.908;35.556;2024-02-15T00:20:54;22.10;;;9.88;;
73337;SDS011;61575;49.908;35.556;2024-02-15T00:23:56;19.60;;;9.05;;
73337;SDS011;61575;49.908;35.556;2024-02-15T00:27:01;20.63;;;8.63;;
73337;SDS011;61575;49.908;35.556;2024-02-15T00:30:03;19.20;;;8.80;;
73337;SDS011;61575;49.908;35.556;2024-02-15T00:33:09;22.83;;;9.80;;
73337;SDS011;61575;49.908;35.556;2024-02-15T00:39:15;22.97;;;9.67;;
73337;SDS011;61575;49.908;35.556;2024-02-15T00:42:20;21.92;;;8.95;;
73337;SDS011;61575;49.908;35.556;2024-02-15T00:45:22;20.77;;;8.95;;
73337;SDS011;61575;49.908;35.556;2024-02-15T00:48:24;19.17;;;7.87;;
73337;SDS011;61575;49.908;35.556;2024-02-15T00:51:28;23.40;;;9.27;;
73337;SDS011;61575;49.908;35.556;2024-02-15T00:54:30;26.00;;;10.30;;
73337;SDS011;61575;49.908;35.556;2024-02-15T00:57:32;27.77;;;11.20;;
73337;SDS011;61575;49.908;35.556;2024-02-15T01:00:34;20.75;;;9.80;;
73337;SDS011;61575;49.908;35.556;2024-02-15T01:03:37;19.45;;;8.65;;
73337;SDS011;61575;49.908;35.556;2024-02-15T01:06:40;21.92;;;9.48;;
73337;SDS011;61575;49.908;35.556;2024-02-15T01:09:43;22.45;;;8.80;;
73337;SDS011;61575;49.908;35.556;2024-02-15T01:12:46;20.00;;;8.57;;
73337;SDS011;61575;49.908;35.556;2024-02-15T01:15:48;21.67;;;9.40;;
73337;SDS011;61575;49.908;35.556;2024-02-15T01:18:51;21.75;;;9.25;;
73337;SDS011;61575;49.908;35.556;2024-02-15T01:21:53;21.23;;;9.25;;
73337;SDS011;61575;49.908;35.556;2024-02-15T01:24:55;14.20;;;6.60;;
73337;SDS011;61575;49.908;35.556;2024-02-15T01:27:59;20.42;;;8.65;;
73337;SDS011;61575;49.908;35.556;2024-02-15T01:31:03;21.45;;;8.68;;
73337;SDS011;61575;49.908;35.556;2024-02-15T01:34:05;19.33;;;8.43;;
73337;SDS011;61575;49.908;35.556;2024-02-15T01:37:07;20.88;;;8.25;;
73337;SDS011;61575;49.908;35.556;2024-02-15T01:40:09;21.27;;;8.77;;
73337;SDS011;61575;49.908;35.556;2024-02-15T01:43:14;20.13;;;8.73;;
73337;SDS011;61575;49.908;35.556;2024-02-15T01:46:17;20.98;;;9.32;;
73337;SDS011;61575;49.908;35.556;2024-02-15T01:49:20;21.08;;;9.20;;
73337;SDS011;61575;49.908;35.556;2024-02-15T01:52:24;22.42;;;9.68;;
73337;SDS011;61575;49.908;35.556;2024-02-15T01:55:26;23.23;;;9.67;;
73337;SDS011;61575;49.908;35.556;2024-02-15T01:58:28;20.45;;;8.65;;
73337;SDS011;61575;49.908;35.556;2024-02-15T02:01:33;21.50;;;9.25;;
73337;SDS011;61575;49.908;35.556;2024-02-15T02:04:37;19.02;;;8.77;;
73337;SDS011;61575;49.908;35.556;2024-02-15T02:07:39;17.70;;;8.35;;
73337;SDS011;61575;49.908;35.556;2024-02-15T02:10:41;20.38;;;9.02;;
73337;SDS011;61575;49.908;35.556;2024-02-15T02:13:44;22.60;;;8.90;;
73337;SDS011;61575;49.908;35.556;2024-02-15T02:16:46;17.57;;;7.50;;
73337;SDS011;61575;49.908;35.556;2024-02-15T02:19:48;19.42;;;9.05;;
73337;SDS011;61575;49.908;35.556;2024-02-15T02:22:56;18.65;;;8.23;;
73337;SDS011;61575;49.908;35.556;2024-02-15T02:26:18;17.40;;;8.50;;
73337;SDS011;61575;49.908;35.556;2024-02-15T02:29:22;19.60;;;8.50;;
73337;SDS011;61575;49.908;35.556;2024-02-15T02:32:25;20.50;;;8.57;;
73337;SDS011;61575;49.908;35.556;2024-02-15T02:35:32;21.38;;;8.45;;
73337;SDS011;61575;49.908;35.556;2024-02-15T02:38:35;20.23;;;8.95;;
73337;SDS011;61575;49.908;35.556;2024-02-15T02:41:39;17.98;;;8.40;;
73337;SDS011;61575;49.908;35.556;2024-02-15T02:44:41;22.33;;;9.17;;
73337;SDS011;61575;49.908;35.556;2024-02-15T02:47:43;18.33;;;8.95;;
73337;SDS011;61575;49.908;35.556;2024-02-15T02:50:45;21.42;;;9.50;;
73337;SDS011;61575;49.908;35.556;2024-02-15T02:53:47;19.60;;;8.82;;
73337;SDS011;61575;49.908;35.556;2024-02-15T02:56:49;22.43;;;8.83;;
73337;SDS011;61575;49.908;35.556;2024-02-15T02:59:51;20.65;;;9.30;;
73337;SDS011;61575;49.908;35.556;2024-02-15T03:02:53;22.07;;;9.57;;
73337;SDS011;61575;49.908;35.556;2024-02-15T03:05:58;19.23;;;8.00;;
73337;SDS011;61575;49.908;35.556;2024-02-15T03:09:01;18.90;;;8.32;;
73337;SDS011;61575;49.908;35.556;2024-02-15T03:12:03;17.00;;;8.15;;
73337;SDS011;61575;49.908;35.556;2024-02-15T03:15:06;15.55;;;7.25;;
73337;SDS011;61575;49.908;35.556;2024-02-15T03:18:16;17.50;;;8.00;;
73337;SDS011;61575;49.908;35.556;2024-02-15T03:21:19;14.90;;;7.15;;
73337;SDS011;61575;49.908;35.556;2024-02-15T03:27:23;17.23;;;7.43;;
73337;SDS011;61575;49.908;35.556;2024-02-15T03:30:26;15.68;;;7.18;;
73337;SDS011;61575;49.908;35.556;2024-02-15T03:33:32;13.68;;;6.72;;
73337;SDS011;61575;49.908;35.556;2024-02-15T03:36:36;17.58;;;8.48;;
73337;SDS011;61575;49.908;35.556;2024-02-15T03:39:38;17.20;;;7.73;;
73337;SDS011;61575;49.908;35.556;2024-02-15T03:42:40;16.50;;;7.07;;
73337;SDS011;61575;49.908;35.556;2024-02-15T03:45:43;23.05;;;10.00;;
73337;SDS011;61575;49.908;35.556;2024-02-15T03:51:48;16.55;;;6.72;;
73337;SDS011;61575;49.908;35.556;2024-02-15T03:54:50;16.92;;;7.75;;
73337;SDS011;61575;49.908;35.556;2024-02-15T03:57:53;15.07;;;6.80;;
73337;SDS011;61575;49.908;35.556;2024-02-15T04:00:59;16.20;;;7.22;;
73337;SDS011;61575;49.908;35.556;2024-02-15T04:04:01;16.63;;;6.85;;
73337;SDS011;61575;49.908;35.556;2024-02-15T04:07:04;17.00;;;7.53;;
73337;SDS011;61575;49.908;35.556;2024-02-15T04:10:06;17.43;;;7.90;;
73337;SDS011;61575;49.908;35.556;2024-02-15T04:13:10;16.52;;;6.88;;
73337;SDS011;61575;49.908;35.556;2024-02-15T04:16:12;14.48;;;6.97;;
73337;SDS011;61575;49.908;35.556;2024-02-15T04:19:15;16.38;;;7.32;;
73337;SDS011;61575;49.908;35.556;2024-02-15T04:22:17;15.47;;;7.63;;
73337;SDS011;61575;49.908;35.556;2024-02-15T04:25:19;15.25;;;6.90;;
73337;SDS011;61575;49.908;35.556;2024-02-15T04:28:24;15.38;;;7.28;;
73337;SDS011;61575;49.908;35.556;2024-02-15T04:31:26;18.25;;;7.38;;
73337;SDS011;61575;49.908;35.556;2024-02-15T04:34:29;14.20;;;6.50;;
73337;SDS011;61575;49.908;35.556;2024-02-15T04:37:32;15.52;;;6.88;;
73337;SDS011;61575;49.908;35.556;2024-02-15T04:40:36;15.73;;;7.43;;
73337;SDS011;61575;49.908;35.556;2024-02-15T04:43:40;15.77;;;6.93;;
73337;SDS011;61575;49.908;35.556;2024-02-15T04:46:44;16.48;;;7.30;;
73337;SDS011;61575;49.908;35.556;2024-02-15T04:49:47;14.80;;;7.40;;
73337;SDS011;61575;49.908;35.556;2024-02-15T04:52:49;14.53;;;7.17;;
73337;SDS011;61575;49.908;35.556;2024-02-15T04:55:51;14.63;;;6.90;;
73337;SDS011;61575;49.908;35.556;2024-02-15T04:58:53;14.32;;;6.70;;
73337;SDS011;61575;49.908;35.556;2024-02-15T05:01:55;15.70;;;7.88;;
73337;SDS011;61575;49.908;35.556;2024-02-15T05:04:58;17.85;;;7.75;;
73337;SDS011;61575;49.908;35.556;2024-02-15T05:08:00;16.37;;;6.70;;
73337;SDS011;61575;49.908;35.556;2024-02-15T05:14:07;14.13;;;6.30;;
73337;SDS011;61575;49.908;35.556;2024-02-15T05:17:09;15.80;;;6.78;;
73337;SDS011;61575;49.908;35.556;2024-02-15T05:20:13;16.75;;;7.35;;
73337;SDS011;61575;49.908;35.556;2024-02-15T05:23:16;13.88;;;6.95;;
73337;SDS011;61575;49.908;35.556;2024-02-15T05:26:19;15.27;;;6.97;;
73337;SDS011;61575;49.908;35.556;2024-02-15T05:29:24;15.10;;;7.03;;
73337;SDS011;61575;49.908;35.556;2024-02-15T05:32:26;15.35;;;6.75;;
73337;SDS011;61575;49.908;35.556;2024-02-15T05:35:28;14.73;;;6.55;;
73337;SDS011;61575;49.908;35.556;2024-02-15T05:38:30;16.13;;;7.00;;
73337;SDS011;61575;49.908;35.556;2024-02-15T05:41:33;15.60;;;7.03;;
73337;SDS011;61575;49.908;35.556;2024-02-15T05:44:36;16.77;;;7.22;;
73337;SDS011;61575;49.908;35.556;2024-02-15T05:47:38;14.50;;;6.82;;
73337;SDS011;61575;49.908;35.556;2024-02-15T05:50:41;14.13;;;7.32;;
73337;SDS011;61575;49.908;35.556;2024-02-15T05:53:43;13.63;;;6.43;;
73337;SDS011;61575;49.908;35.556;2024-02-15T05:56:45;15.02;;;6.32;;
73337;SDS011;61575;49.908;35.556;2024-02-15T05:59:53;13.32;;;6.13;;
73337;SDS011;61575;49.908;35.556;2024-02-15T06:03:01;14.80;;;6.57;;
73337;SDS011;61575;49.908;35.556;2024-02-15T06:06:04;15.50;;;6.50;;
73337;SDS011;61575;49.908;35.556;2024-02-15T06:09:10;14.40;;;6.80;;
73337;SDS011;61575;49.908;35.556;2024-02-15T06:12:12;15.27;;;6.25;;
73337;SDS011;61575;49.908;35.556;2024-02-15T06:15:14;12.10;;;6.00;;
73337;SDS011;61575;49.908;35.556;2024-02-15T06:18:18;12.90;;;6.05;;
73337;SDS011;61575;49.908;35.556;2024-02-15T06:21:29;12.82;;;6.65;;
73337;SDS011;61575;49.908;35.556;2024-02-15T06:24:31;12.17;;;5.43;;
73337;SDS011;61575;49.908;35.556;2024-02-15T06:27:33;11.85;;;5.30;;
73337;SDS011;61575;49.908;35.556;2024-02-15T06:30:35;11.55;;;5.18;;
73337;SDS011;61575;49.908;35.556;2024-02-15T06:33:57;12.95;;;5.28;;
73337;SDS011;61575;49.908;35.556;2024-02-15T06:37:36;11.30;;;5.20;;
73337;SDS011;61575;49.908;35.556;2024-02-15T06:40:57;10.95;;;4.95;;
73337;SDS011;61575;49.908;35.556;2024-02-15T06:43:59;11.82;;;5.45;;
73337;SDS011;61575;49.908;35.556;2024-02-15T06:47:02;11.57;;;5.47;;
73337;SDS011;61575;49.908;35.556;2024-02-15T06:50:04;10.37;;;4.90;;
73337;SDS011;61575;49.908;35.556;2024-02-15T06:53:06;11.25;;;5.22;;
73337;SDS011;61575;49.908;35.556;2024-02-15T06:56:10;13.57;;;5.43;;
73337;SDS011;61575;49.908;35.556;2024-02-15T06:59:13;11.68;;;5.80;;
73337;SDS011;61575;49.908;35.556;2024-02-15T07:02:15;14.10;;;5.70;;
73337;SDS011;61575;49.908;35.556;2024-02-15T07:05:18;12.20;;;4.68;;
73337;SDS011;61575;49.908;35.556;2024-02-15T07:08:20;12.60;;;6.57;;
73337;SDS011;61575;49.908;35.556;2024-02-15T07:11:22;12.43;;;5.55;;
73337;SDS011;61575;49.908;35.556;2024-02-15T07:14:24;14.07;;;5.55;;
73337;SDS011;61575;49.908;35.556;2024-02-15T07:17:27;13.65;;;5.55;;
73337;SDS011;61575;49.908;35.556;2024-02-15T07:20:30;11.05;;;5.07;;
73337;SDS011;61575;49.908;35.556;2024-02-15T07:26:38;10.32;;;5.38;;
73337;SDS011;61575;49.908;35.556;2024-02-15T07:29:41;10.80;;;5.50;;
73337;SDS011;61575;49.908;35.556;2024-02-15T07:32:43;10.13;;;5.03;;
73337;SDS011;61575;49.908;35.556;2024-02-15T07:35:45;8.83;;;3.93;;
73337;SDS011;61575;49.908;35.556;2024-02-15T07:38:47;11.10;;;5.20;;
73337;SDS011;61575;49.908;35.556;2024-02-15T07:41:50;9.27;;;4.93;;
73337;SDS011;61575;49.908;35.556;2024-02-15T07:44:53;11.25;;;5.22;;
73337;SDS011;61575;49.908;35.556;2024-02-15T07:47:55;11.82;;;5.35;;
73337;SDS011;61575;49.908;35.556;2024-02-15T07:50:57;11.83;;;4.87;;
73337;SDS011;61575;49.908;35.556;2024-02-15T07:54:00;10.48;;;5.05;;
73337;SDS011;61575;49.908;35.556;2024-02-15T07:57:03;12.32;;;5.18;;
73337;SDS011;61575;49.908;35.556;2024-02-15T08:00:06;13.90;;;5.53;;
73337;SDS011;61575;49.908;35.556;2024-02-15T08:03:12;15.13;;;7.47;;
73337;SDS011;61575;49.908;35.556;2024-02-15T08:06:16;24.40;;;10.23;;
73337;SDS011;61575;49.908;35.556;2024-02-15T08:09:19;26.35;;;11.75;;
73337;SDS011;61575;49.908;35.556;2024-02-15T08:12:23;21.42;;;11.45;;
73337;SDS011;61575;49.908;35.556;2024-02-15T08:15:26;23.98;;;9.65;;
73337;SDS011;61575;49.908;35.556;2024-02-15T08:18:30;17.88;;;6.90;;
73337;SDS011;61575;49.908;35.556;2024-02-15T08:21:32;18.30;;;8.00;;
73337;SDS011;61575;49.908;35.556;2024-02-15T08:24:37;19.92;;;7.82;;
73337;SDS011;61575;49.908;35.556;2024-02-15T08:27:42;18.17;;;8.57;;
73337;SDS011;61575;49.908;35.556;2024-02-15T08:30:46;18.67;;;8.07;;
73337;SDS011;61575;49.908;35.556;2024-02-15T08:33:48;16.63;;;8.05;;
73337;SDS011;61575;49.908;35.556;2024-02-15T08:36:50;15.03;;;7.17;;
73337;SDS011;61575;49.908;35.556;2024-02-15T08:39:53;13.40;;;6.47;;
73337;SDS011;61575;49.908;35.556;2024-02-15T08:42:55;12.83;;;5.77;;
73337;SDS011;61575;49.908;35.556;2024-02-15T08:45:57;11.40;;;5.05;;
73337;SDS011;61575;49.908;35.556;2024-02-15T08:48:59;12.30;;;6.10;;
73337;SDS011;61575;49.908;35.556;2024-02-15T08:52:03;11.00;;;5.50;;
73337;SDS011;61575;49.908;35.556;2024-02-15T08:55:06;12.52;;;6.00;;
73337;SDS011;61575;49.908;35.556;2024-02-15T08:58:09;10.88;;;5.32;;
73337;SDS011;61575;49.908;35.556;2024-02-15T09:01:11;11.13;;;5.82;;
73337;SDS011;61575;49.908;35.556;2024-02-15T09:04:15;12.82;;;6.03;;
73337;SDS011;61575;49.908;35.556;2024-02-15T09:07:17;12.77;;;5.70;;
73337;SDS011;61575;49.908;35.556;2024-02-15T09:10:19;13.32;;;6.45;;
73337;SDS011;61575;49.908;35.556;2024-02-15T09:13:24;14.50;;;6.30;;
73337;SDS011;61575;49.908;35.556;2024-02-15T09:16:26;12.80;;;5.83;;
73337;SDS011;61575;49.908;35.556;2024-02-15T09:19:29;15.55;;;6.93;;
73337;SDS011;61575;49.908;35.556;2024-02-15T09:22:32;14.47;;;6.07;;
73337;SDS011;61575;49.908;35.556;2024-02-15T09:25:34;14.93;;;6.63;;
73337;SDS011;61575;49.908;35.556;2024-02-15T09:28:40;13.02;;;5.53;;
73337;SDS011;61575;49.908;35.556;2024-02-15T09:34:44;17.17;;;6.90;;
73337;SDS011;61575;49.908;35.556;2024-02-15T09:37:47;14.13;;;5.93;;
73337;SDS011;61575;49.908;35.556;2024-02-15T09:40:51;13.55;;;5.55;;
73337;SDS011;61575;49.908;35.556;2024-02-15T09:43:53;14.27;;;6.83;;
73337;SDS011;61575;49.908;35.556;2024-02-15T09:47:02;13.13;;;6.15;;
73337;SDS011;61575;49.908;35.556;2024-02-15T09:50:13;17.35;;;7.97;;
73337;SDS011;61575;49.908;35.556;2024-02-15T09:53:18;15.82;;;6.10;;
73337;SDS011;61575;49.908;35.556;2024-02-15T09:56:27;20.90;;;6.85;;
73337;SDS011;61575;49.908;35.556;2024-02-15T09:59:33;15.02;;;6.60;;
73337;SDS011;61575;49.908;35.556;2024-02-15T10:02:37;14.35;;;6.68;;
73337;SDS011;61575;49.908;35.556;2024-02-15T10:05:41;15.25;;;6.18;;
73337;SDS011;61575;49.908;35.556;2024-02-15T10:08:44;12.25;;;5.40;;
73337;SDS011;61575;49.908;35.556;2024-02-15T10:11:58;13.50;;;6.10;;
73337;SDS011;61575;49.908;35.556;2024-02-15T10:15:01;22.80;;;9.15;;
73337;SDS011;61575;49.908;35.556;2024-02-15T10:18:04;36.40;;;11.60;;
73337;SDS011;61575;49.908;35.556;2024-02-15T10:21:09;18.55;;;7.70;;
73337;SDS011;61575;49.908;35.556;2024-02-15T10:24:13;19.63;;;7.57;;
73337;SDS011;61575;49.908;35.556;2024-02-15T10:27:16;23.75;;;9.68;;
73337;SDS011;61575;49.908;35.556;2024-02-15T10:30:25;22.95;;;8.85;;
73337;SDS011;61575;49.908;35.556;2024-02-15T10:33:28;16.10;;;7.15;;
73337;SDS011;61575;49.908;35.556;2024-02-15T10:36:32;17.77;;;7.45;;
73337;SDS011;61575;49.908;35.556;2024-02-15T10:39:36;17.90;;;6.97;;
73337;SDS011;61575;49.908;35.556;2024-02-15T10:42:40;13.30;;;5.43;;
73337;SDS011;61575;49.908;35.556;2024-02-15T10:45:44;16.38;;;6.53;;
73337;SDS011;61575;49.908;35.556;2024-02-15T10:51:59;14.95;;;6.60;;
73337;SDS011;61575;49.908;35.556;2024-02-15T10:55:06;19.40;;;7.18;;
73337;SDS011;61575;49.908;35.556;2024-02-15T10:58:16;15.15;;;6.40;;
73337;SDS011;61575;49.908;35.556;2024-02-15T11:01:21;12.95;;;5.80;;
73337;SDS011;61575;49.908;35.556;2024-02-15T11:04:25;13.52;;;5.50;;
73337;SDS011;61575;49.908;35.556;2024-02-15T11:07:34;14.20;;;6.55;;
73337;SDS011;61575;49.908;35.556;2024-02-15T11:13:40;18.55;;;7.00;;
73337;SDS011;61575;49.908;35.556;2024-02-15T11:16:44;14.50;;;6.32;;
73337;SDS011;61575;49.908;35.556;2024-02-15T11:19:47;16.55;;;6.10;;
73337;SDS011;61575;49.908;35.556;2024-02-15T11:22:55;13.73;;;5.70;;
73337;SDS011;61575;49.908;35.556;2024-02-15T11:25:59;14.68;;;6.22;;
73337;SDS011;61575;49.908;35.556;2024-02-15T11:29:02;15.85;;;6.75;;
73337;SDS011;61575;49.908;35.556;2024-02-15T11:32:04;15.20;;;7.07;;
73337;SDS011;61575;49.908;35.556;2024-02-15T11:35:07;17.80;;;7.70;;
73337;SDS011;61575;49.908;35.556;2024-02-15T11:38:26;14.93;;;6.00;;
73337;SDS011;61575;49.908;35.556;2024-02-15T11:41:29;11.10;;;5.20;;
73337;SDS011;61575;49.908;35.556;2024-02-15T11:44:31;10.90;;;5.72;;
73337;SDS011;61575;49.908;35.556;2024-02-15T11:47:36;11.13;;;4.47;;
73337;SDS011;61575;49.908;35.556;2024-02-15T11:50:44;9.95;;;4.90;;
73337;SDS011;61575;49.908;35.556;2024-02-15T11:53:57;13.40;;;5.55;;
73337;SDS011;61575;49.908;35.556;2024-02-15T11:57:00;11.85;;;5.43;;
73337;SDS011;61575;49.908;35.556;2024-02-15T12:00:18;11.95;;;4.88;;
73337;SDS011;61575;49.908;35.556;2024-02-15T12:03:40;14.07;;;5.03;;
73337;SDS011;61575;49.908;35.556;2024-02-15T12:07:08;11.30;;;5.50;;
73337;SDS011;61575;49.908;35.556;2024-02-15T12:10:28;12.70;;;6.03;;
73337;SDS011;61575;49.908;35.556;2024-02-15T12:13:50;11.23;;;4.95;;
73337;SDS011;61575;49.908;35.556;2024-02-15T12:17:12;11.80;;;5.15;;
73337;SDS011;61575;49.908;35.556;2024-02-15T12:20:34;14.25;;;5.78;;
73337;SDS011;61575;49.908;35.556;2024-02-15T12:23:39;17.45;;;7.15;;
73337;SDS011;61575;49.908;35.556;2024-02-15T12:26:43;18.48;;;7.15;;
73337;SDS011;61575;49.908;35.556;2024-02-15T12:29:45;34.97;;;12.47;;
73337;SDS011;61575;49.908;35.556;2024-02-15T12:32:49;31.65;;;12.10;;
73337;SDS011;61575;49.908;35.556;2024-02-15T12:35:52;20.05;;;10.25;;
73337;SDS011;61575;49.908;35.556;2024-02-15T12:39:06;12.20;;;6.35;;
73337;SDS011;61575;49.908;35.556;2024-02-15T12:42:18;9.48;;;5.28;;
73337;SDS011;61575;49.908;35.556;2024-02-15T12:45:22;18.10;;;6.35;;
73337;SDS011;61575;49.908;35.556;2024-02-15T12:48:29;29.27;;;8.75;;
73337;SDS011;61575;49.908;35.556;2024-02-15T12:51:31;16.27;;;5.90;;
73337;SDS011;61575;49.908;35.556;2024-02-15T12:54:37;12.65;;;5.32;;
73337;SDS011;61575;49.908;35.556;2024-02-15T12:57:41;12.40;;;5.68;;
73337;SDS011;61575;49.908;35.556;2024-02-15T13:00:47;12.88;;;5.40;;
73337;SDS011;61575;49.908;35.556;2024-02-15T13:03:50;11.02;;;4.97;;
73337;SDS011;61575;49.908;35.556;2024-02-15T13:06:54;10.90;;;5.35;;
73337;SDS011;61575;49.908;35.556;2024-02-15T13:09:56;10.85;;;5.32;;
73337;SDS011;61575;49.908;35.556;2024-02-15T13:12:58;11.25;;;5.10;;
73337;SDS011;61575;49.908;35.556;2024-02-15T13:16:00;12.02;;;5.30;;
73337;SDS011;61575;49.908;35.556;2024-02-15T13:19:03;10.13;;;4.50;;
73337;SDS011;61575;49.908;35.556;2024-02-15T13:22:08;13.32;;;5.30;;
73337;SDS011;61575;49.908;35.556;2024-02-15T13:25:10;10.73;;;5.38;;
73337;SDS011;61575;49.908;35.556;2024-02-15T13:28:12;10.20;;;4.70;;
73337;SDS011;61575;49.908;35.556;2024-02-15T13:31:15;10.20;;;5.18;;
73337;SDS011;61575;49.908;35.556;2024-02-15T13:34:18;11.05;;;5.00;;
73337;SDS011;61575;49.908;35.556;2024-02-15T13:37:21;10.13;;;4.50;;
73337;SDS011;61575;49.908;35.556;2024-02-15T13:40:25;9.77;;;4.32;;
73337;SDS011;61575;49.908;35.556;2024-02-15T13:43:29;9.75;;;4.00;;
73337;SDS011;61575;49.908;35.556;2024-02-15T13:46:33;8.15;;;4.18;;
73337;SDS011;61575;49.908;35.556;2024-02-15T13:49:35;9.82;;;4.72;;
73337;SDS011;61575;49.908;35.556;2024-02-15T13:52:38;18.48;;;6.82;;
73337;SDS011;61575;49.908;35.556;2024-02-15T13:55:40;11.73;;;5.68;;
73337;SDS011;61575;49.908;35.556;2024-02-15T13:58:42;10.90;;;4.97;;
73337;SDS011;61575;49.908;35.556;2024-02-15T14:01:44;10.00;;;4.80;;
73337;SDS011;61575;49.908;35.556;2024-02-15T14:04:47;9.25;;;4.85;;
73337;SDS011;61575;49.908;35.556;2024-02-15T14:07:54;9.97;;;4.10;;
73337;SDS011;61575;49.908;35.556;2024-02-15T14:10:57;7.22;;;3.28;;
73337;SDS011;61575;49.908;35.556;2024-02-15T14:13:59;7.43;;;3.80;;
73337;SDS011;61575;49.908;35.556;2024-02-15T14:17:02;8.82;;;4.38;;
73337;SDS011;61575;49.908;35.556;2024-02-15T14:20:04;10.97;;;4.13;;
73337;SDS011;61575;49.908;35.556;2024-02-15T14:23:10;36.42;;;21.38;;
73337;SDS011;61575;49.908;35.556;2024-02-15T14:26:16;11.27;;;7.00;;
73337;SDS011;61575;49.908;35.556;2024-02-15T14:29:18;10.82;;;5.20;;
73337;SDS011;61575;49.908;35.556;2024-02-15T14:32:24;13.50;;;4.80;;
73337;SDS011;61575;49.908;35.556;2024-02-15T14:35:45;9.40;;;4.53;;
73337;SDS011;61575;49.908;35.556;2024-02-15T14:41:49;8.32;;;3.75;;
73337;SDS011;61575;49.908;35.556;2024-02-15T14:44:51;7.88;;;3.45;;
73337;SDS011;61575;49.908;35.556;2024-02-15T14:47:53;8.35;;;3.78;;
73337;SDS011;61575;49.908;35.556;2024-02-15T14:50:55;6.87;;;3.03;;
73337;SDS011;61575;49.908;35.556;2024-02-15T14:53:58;7.75;;;3.40;;
73337;SDS011;61575;49.908;35.556;2024-02-15T14:57:00;8.10;;;3.30;;
73337;SDS011;61575;49.908;35.556;2024-02-15T15:00:03;8.07;;;3.50;;
73337;SDS011;61575;49.908;35.556;2024-02-15T15:03:16;8.40;;;3.88;;
73337;SDS011;61575;49.908;35.556;2024-02-15T15:06:19;8.15;;;4.30;;
73337;SDS011;61575;49.908;35.556;2024-02-15T15:09:39;7.20;;;3.40;;
73337;SDS011;61575;49.908;35.556;2024-02-15T15:13:20;6.90;;;3.38;;
73337;SDS011;61575;49.908;35.556;2024-02-15T15:16:23;9.10;;;3.80;;
73337;SDS011;61575;49.908;35.556;2024-02-15T15:19:26;7.30;;;3.22;;
73337;SDS011;61575;49.908;35.556;2024-02-15T15:22:29;8.77;;;3.80;;
73337;SDS011;61575;49.908;35.556;2024-02-15T15:25:32;9.63;;;4.35;;
73337;SDS011;61575;49.908;35.556;2024-02-15T15:28:40;8.30;;;4.60;;
73337;SDS011;61575;49.908;35.556;2024-02-15T15:31:42;8.63;;;4.20;;
73337;SDS011;61575;49.908;35.556;2024-02-15T15:34:44;7.68;;;3.55;;
73337;SDS011;61575;49.908;35.556;2024-02-15T15:37:47;7.35;;;3.30;;
73337;SDS011;61575;49.908;35.556;2024-02-15T15:40:52;6.07;;;3.10;;
73337;SDS011;61575;49.908;35.556;2024-02-15T15:43:56;7.03;;;2.97;;
73337;SDS011;61575;49.908;35.556;2024-02-15T15:47:00;9.38;;;3.95;;
73337;SDS011;61575;49.908;35.556;2024-02-15T15:50:02;5.63;;;2.70;;
73337;SDS011;61575;49.908;35.556;2024-02-15T15:53:08;6.97;;;3.40;;
73337;SDS011;61575;49.908;35.556;2024-02-15T15:56:12;7.15;;;3.30;;
73337;SDS011;61575;49.908;35.556;2024-02-15T15:59:14;7.13;;;2.88;;
73337;SDS011;61575;49.908;35.556;2024-02-15T16:02:17;8.95;;;3.78;;
73337;SDS011;61575;49.908;35.556;2024-02-15T16:05:19;11.73;;;4.32;;
73337;SDS011;61575;49.908;35.556;2024-02-15T16:08:21;12.20;;;4.38;;
73337;SDS011;61575;49.908;35.556;2024-02-15T16:11:23;11.15;;;4.68;;
73337;SDS011;61575;49.908;35.556;2024-02-15T16:14:25;10.13;;;5.00;;
73337;SDS011;61575;49.908;35.556;2024-02-15T16:17:28;7.22;;;3.83;;
73337;SDS011;61575;49.908;35.556;2024-02-15T16:20:32;7.80;;;3.88;;
73337;SDS011;61575;49.908;35.556;2024-02-15T16:23:34;6.57;;;3.07;;
73337;SDS011;61575;49.908;35.556;2024-02-15T16:26:36;8.40;;;4.63;;
73337;SDS011;61575;49.908;35.556;2024-02-15T16:29:38;9.30;;;4.13;;
73337;SDS011;61575;49.908;35.556;2024-02-15T16:32:40;7.93;;;3.60;;
73337;SDS011;61575;49.908;35.556;2024-02-15T16:35:43;8.52;;;3.75;;
73337;SDS011;61575;49.908;35.556;2024-02-15T16:38:45;7.40;;;3.10;;
73337;SDS011;61575;49.908;35.556;2024-02-15T16:41:47;30.42;;;12.45;;
73337;SDS011;61575;49.908;35.556;2024-02-15T16:44:51;56.80;;;25.15;;
73337;SDS011;61575;49.908;35.556;2024-02-15T16:51:02;12.70;;;6.68;;
73337;SDS011;61575;49.908;35.556;2024-02-15T16:54:04;8.60;;;3.97;;
73337;SDS011;61575;49.908;35.556;2024-02-15T16:57:10;10.32;;;4.28;;
73337;SDS011;61575;49.908;35.556;2024-02-15T17:00:16;10.25;;;4.50;;
73337;SDS011;61575;49.908;35.556;2024-02-15T17:03:20;7.05;;;3.05;;
73337;SDS011;61575;49.908;35.556;2024-02-15T17:06:22;6.73;;;2.97;;
73337;SDS011;61575;49.908;35.556;2024-02-15T17:09:24;8.83;;;4.00;;
73337;SDS011;61575;49.908;35.556;2024-02-15T17:12:26;10.43;;;3.70;;
73337;SDS011;61575;49.908;35.556;2024-02-15T17:15:30;9.27;;;3.63;;
73337;SDS011;61575;49.908;35.556;2024-02-15T17:18:35;10.00;;;3.60;;
73337;SDS011;61575;49.908;35.556;2024-02-15T17:21:41;7.93;;;3.55;;
73337;SDS011;61575;49.908;35.556;2024-02-15T17:27:45;7.97;;;3.70;;
73337;SDS011;61575;49.908;35.556;2024-02-15T17:30:49;8.52;;;4.03;;
73337;SDS011;61575;49.908;35.556;2024-02-15T17:33:51;11.07;;;4.43;;
73337;SDS011;61575;49.908;35.556;2024-02-15T17:36:53;9.20;;;4.10;;
73337;SDS011;61575;49.908;35.556;2024-02-15T17:39:55;8.65;;;3.75;;
73337;SDS011;61575;49.908;35.556;2024-02-15T17:42:57;8.20;;;3.67;;
73337;SDS011;61575;49.908;35.556;2024-02-15T17:45:59;9.40;;;3.28;;
73337;SDS011;61575;49.908;35.556;2024-02-15T17:49:01;11.20;;;4.63;;
73337;SDS011;61575;49.908;35.556;2024-02-15T17:52:03;7.10;;;3.17;;
73337;SDS011;61575;49.908;35.556;2024-02-15T17:55:06;10.55;;;3.83;;
73337;SDS011;61575;49.908;35.556;2024-02-15T17:58:11;10.65;;;4.68;;
73337;SDS011;61575;49.908;35.556;2024-02-15T18:01:13;9.48;;;4.50;;
73337;SDS011;61575;49.908;35.556;2024-02-15T18:04:15;11.68;;;5.85;;
73337;SDS011;61575;49.908;35.556;2024-02-15T18:07:19;8.82;;;4.38;;
73337;SDS011;61575;49.908;35.556;2024-02-15T18:10:21;7.68;;;3.42;;
73337;SDS011;61575;49.908;35.556;2024-02-15T18:13:23;9.30;;;4.43;;
73337;SDS011;61575;49.908;35.556;2024-02-15T18:16:25;9.43;;;4.28;;
73337;SDS011;61575;49.908;35.556;2024-02-15T18:19:27;8.55;;;3.88;;
73337;SDS011;61575;49.908;35.556;2024-02-15T18:22:29;11.37;;;4.97;;
73337;SDS011;61575;49.908;35.556;2024-02-15T18:25:31;46.25;;;15.95;;
73337;SDS011;61575;49.908;35.556;2024-02-15T18:28:33;11.10;;;5.22;;
73337;SDS011;61575;49.908;35.556;2024-02-15T18:31:36;14.05;;;8.07;;
73337;SDS011;61575;49.908;35.556;2024-02-15T18:34:38;12.33;;;6.20;;